DLH7PC EDDC-EDDC

Flight info

Callsign DLH7PC
Flight time 0h 25m
Altitude 2500
Route DRN
Aircraft A320/M-SDE3FGHIRWY/LB1

Departure

Time 2026-05-08 15:06
Airport Dresden Airport (EDDC)

Arrival

Time 2026-05-08 15:31
Airport Dresden Airport (EDDC)
Time Latitude Longitude Altitude Speed Heading
2026-05-08 14:41 51.12892 13.76646 750 ft 0 kts 130°
2026-05-08 15:00 51.12873 13.76679 750 ft 6 kts 140°
2026-05-08 15:00 51.12841 13.76658 750 ft 9 kts 221°
2026-05-08 15:00 51.12782 13.76574 747 ft 11 kts 221°
2026-05-08 15:00 51.12776 13.76485 749 ft 9 kts 307°
2026-05-08 15:01 51.12791 13.76400 751 ft 9 kts 253°
2026-05-08 15:01 51.12751 13.76335 747 ft 8 kts 218°
2026-05-08 15:01 51.12712 13.76282 749 ft 6 kts 220°
2026-05-08 15:01 51.12677 13.76235 751 ft 10 kts 220°
2026-05-08 15:02 51.12630 13.76170 754 ft 7 kts 221°
2026-05-08 15:02 51.12596 13.76123 752 ft 7 kts 220°
2026-05-08 15:02 51.12529 13.76031 756 ft 14 kts 220°
2026-05-08 15:02 51.12467 13.75947 763 ft 10 kts 221°
2026-05-08 15:03 51.12394 13.75846 764 ft 15 kts 221°
2026-05-08 15:03 51.12375 13.75717 765 ft 12 kts 296°
2026-05-08 15:03 51.12403 13.75636 765 ft 0 kts 294°
2026-05-08 15:04 51.12405 13.75629 765 ft 5 kts 294°
2026-05-08 15:04 51.12432 13.75563 767 ft 8 kts 308°
2026-05-08 15:04 51.12480 13.75493 769 ft 6 kts 354°
2026-05-08 15:04 51.12495 13.75511 769 ft 0 kts 36°
2026-05-08 15:05 51.12496 13.75512 769 ft 4 kts 36°
2026-05-08 15:05 51.12756 13.75865 754 ft 91 kts 40°
2026-05-08 15:05 51.13413 13.76765 743 ft 155 kts 41°
2026-05-08 15:05 51.14297 13.78011 1056 ft 183 kts 42°
2026-05-08 15:06 51.15256 13.79515 1614 ft 201 kts 54°
2026-05-08 15:06 51.15596 13.81630 2448 ft 206 kts 96°
2026-05-08 15:06 51.15050 13.83740 2501 ft 208 kts 130°
2026-05-08 15:06 51.13828 13.84877 2402 ft 207 kts 169°
2026-05-08 15:07 51.12429 13.84558 2297 ft 207 kts 208°
2026-05-08 15:07 51.11373 13.83025 2327 ft 208 kts 229°
2026-05-08 15:07 51.10279 13.81521 2348 ft 209 kts 216°
2026-05-08 15:07 51.09222 13.79956 2464 ft 209 kts 226°
2026-05-08 15:08 51.08209 13.78298 2369 ft 208 kts 224°
2026-05-08 15:08 51.07140 13.76738 2204 ft 209 kts 222°
2026-05-08 15:08 51.06145 13.75077 2217 ft 207 kts 233°
2026-05-08 15:08 51.05562 13.73012 2426 ft 208 kts 268°
2026-05-08 15:09 51.05965 13.71013 2623 ft 180 kts 313°
2026-05-08 15:09 51.06947 13.69979 2368 ft 169 kts 342°
2026-05-08 15:09 51.08085 13.69695 2054 ft 161 kts
2026-05-08 15:09 51.08973 13.70371 1998 ft 134 kts 40°
2026-05-08 15:10 51.09648 13.71487 1639 ft 148 kts 47°
2026-05-08 15:10 51.10402 13.72615 1355 ft 146 kts 41°
2026-05-08 15:10 51.11137 13.73653 1161 ft 138 kts 41°
2026-05-08 15:10 51.11865 13.74633 956 ft 137 kts 41°
2026-05-08 15:11 51.12580 13.75620 794 ft 133 kts 40°
2026-05-08 15:11 51.13232 13.76506 743 ft 113 kts 40°
2026-05-08 15:11 51.13955 13.77515 952 ft 153 kts 41°
2026-05-08 15:11 51.14762 13.78680 1547 ft 167 kts 47°
2026-05-08 15:12 51.15211 13.80452 1992 ft 186 kts 86°
2026-05-08 15:12 51.14895 13.82508 2406 ft 201 kts 120°
2026-05-08 15:12 51.13885 13.84066 2688 ft 207 kts 154°
2026-05-08 15:12 51.12484 13.84236 2787 ft 207 kts 199°
2026-05-08 15:13 51.11232 13.83064 2576 ft 214 kts 220°
2026-05-08 15:13 51.10127 13.81431 2214 ft 216 kts 224°
2026-05-08 15:13 51.09093 13.79794 2254 ft 207 kts 224°
2026-05-08 15:13 51.08051 13.78207 2314 ft 205 kts 223°
2026-05-08 15:14 51.07052 13.76686 2363 ft 194 kts 224°
2026-05-08 15:14 51.06087 13.75208 2385 ft 191 kts 223°
2026-05-08 15:14 51.05127 13.73755 2409 ft 190 kts 223°
2026-05-08 15:14 51.04164 13.72317 2436 ft 190 kts 223°
2026-05-08 15:15 51.03481 13.70583 2396 ft 188 kts 264°
2026-05-08 15:15 51.03810 13.68661 2329 ft 185 kts 313°
2026-05-08 15:15 51.04856 13.67517 2227 ft 183 kts 341°
2026-05-08 15:15 51.06099 13.67180 2164 ft 182 kts
2026-05-08 15:16 51.07291 13.67718 2114 ft 180 kts 34°
2026-05-08 15:16 51.08177 13.69121 2019 ft 182 kts 51°
2026-05-08 15:16 51.08991 13.70696 1752 ft 183 kts 46°
2026-05-08 15:16 51.09871 13.71971 1482 ft 160 kts 39°
2026-05-08 15:17 51.10688 13.73023 1226 ft 144 kts 41°
2026-05-08 15:17 51.11422 13.74035 1046 ft 139 kts 41°
2026-05-08 15:17 51.12169 13.75059 889 ft 142 kts 40°
2026-05-08 15:17 51.12897 13.76048 751 ft 129 kts 40°
2026-05-08 15:18 51.13585 13.76997 748 ft 155 kts 41°
2026-05-08 15:18 51.14449 13.78226 1371 ft 177 kts 50°
2026-05-08 15:18 51.14917 13.80072 2060 ft 187 kts 88°
2026-05-08 15:18 51.14578 13.82064 2776 ft 192 kts 124°
2026-05-08 15:19 51.13537 13.83471 3178 ft 208 kts 155°
2026-05-08 15:19 51.12121 13.83799 2941 ft 209 kts 190°
2026-05-08 15:19 51.10798 13.82876 2658 ft 209 kts 217°
2026-05-08 15:19 51.09721 13.81306 2298 ft 212 kts 224°
2026-05-08 15:20 51.08688 13.79662 2141 ft 207 kts 226°
2026-05-08 15:20 51.07666 13.78048 2202 ft 207 kts 219°
2026-05-08 15:20 51.06391 13.77043 2398 ft 209 kts 190°
2026-05-08 15:20 51.04968 13.77183 2385 ft 206 kts 157°
2026-05-08 15:21 51.03834 13.78504 2346 ft 203 kts 124°
2026-05-08 15:21 51.03348 13.80563 2319 ft 202 kts 92°
2026-05-08 15:21 51.03657 13.82706 2302 ft 200 kts 58°
2026-05-08 15:21 51.04664 13.84193 2346 ft 201 kts 25°
2026-05-08 15:22 51.06028 13.84537 2400 ft 203 kts 351°
2026-05-08 15:22 51.07302 13.83613 2464 ft 205 kts 318°
2026-05-08 15:22 51.08059 13.81710 2526 ft 207 kts 285°
2026-05-08 15:22 51.08047 13.79441 2576 ft 210 kts 252°
2026-05-08 15:23 51.07266 13.77512 2443 ft 209 kts 223°
2026-05-08 15:23 51.06196 13.75973 2419 ft 207 kts 223°
2026-05-08 15:23 51.05391 13.74181 2407 ft 195 kts 251°
2026-05-08 15:23 51.05332 13.72149 2528 ft 180 kts 286°
2026-05-08 15:24 51.05927 13.70734 2650 ft 145 kts 324°
2026-05-08 15:24 51.06810 13.69973 2472 ft 139 kts 345°
2026-05-08 15:24 51.07725 13.69899 2315 ft 131 kts 12°
2026-05-08 15:24 51.08597 13.70280 2051 ft 131 kts 26°
2026-05-08 15:25 51.09327 13.71114 1785 ft 128 kts 44°
2026-05-08 15:25 51.09968 13.72074 1529 ft 125 kts 41°
2026-05-08 15:25 51.10627 13.72957 1281 ft 122 kts 41°
2026-05-08 15:25 51.11278 13.73836 1117 ft 123 kts 40°
2026-05-08 15:26 51.11933 13.74728 954 ft 124 kts 40°
2026-05-08 15:26 51.12586 13.75625 785 ft 121 kts 40°
2026-05-08 15:26 51.13173 13.76426 747 ft 101 kts 41°
2026-05-08 15:26 51.13790 13.77291 741 ft 154 kts 42°
2026-05-08 15:27 51.14700 13.78435 1428 ft 171 kts 27°
2026-05-08 15:27 51.15841 13.78412 2341 ft 173 kts 331°
2026-05-08 15:27 51.16653 13.76828 2574 ft 201 kts 286°
2026-05-08 15:27 51.16504 13.74616 2407 ft 207 kts 238°
2026-05-08 15:28 51.15483 13.73029 2155 ft 206 kts 217°
2026-05-08 15:28 51.14339 13.71679 2245 ft 206 kts 219°
2026-05-08 15:28 51.13274 13.70124 2386 ft 210 kts 223°
2026-05-08 15:28 51.12191 13.68552 2320 ft 211 kts 220°
2026-05-08 15:29 51.11072 13.67106 2264 ft 203 kts 215°
2026-05-08 15:29 51.09843 13.66517 2462 ft 173 kts 171°
2026-05-08 15:29 51.08876 13.67292 2414 ft 152 kts 127°
2026-05-08 15:29 51.08614 13.68789 2186 ft 138 kts 81°
2026-05-08 15:30 51.08926 13.70215 1873 ft 136 kts 62°
2026-05-08 15:30 51.09482 13.71380 1631 ft 131 kts 44°
2026-05-08 15:30 51.10177 13.72328 1364 ft 130 kts 41°
2026-05-08 15:30 51.10859 13.73259 1200 ft 127 kts 42°
2026-05-08 15:31 51.11524 13.74174 1024 ft 126 kts 41°
2026-05-08 15:31 51.12179 13.75073 871 ft 122 kts 41°
2026-05-08 15:31 51.12816 13.75947 755 ft 115 kts 41°
2026-05-08 15:31 51.13209 13.76480 744 ft 43 kts 41°
2026-05-08 15:32 51.13363 13.76713 738 ft 11 kts 72°
2026-05-08 15:32 51.13321 13.76829 737 ft 14 kts 130°
2026-05-08 15:32 51.13273 13.76917 735 ft 0 kts 131°
2026-05-08 15:33 51.13249 13.76957 735 ft 8 kts 139°
2026-05-08 15:33 51.13209 13.76967 738 ft 3 kts 198°
2026-05-08 15:33 51.13183 13.76932 738 ft 12 kts 221°
2026-05-08 15:34 51.13127 13.76853 743 ft 9 kts 221°
2026-05-08 15:34 51.13085 13.76795 743 ft 7 kts 221°
2026-05-08 15:34 51.13014 13.76695 746 ft 30 kts 218°
2026-05-08 15:34 51.12942 13.76602 748 ft 7 kts 220°
2026-05-08 15:35 51.12920 13.76590 747 ft 1 kts 142°
2026-05-08 15:35 51.12903 13.76628 745 ft 12 kts 130°
2026-05-08 15:35 51.12898 13.76637 747 ft 0 kts 130°